sensor_id;sensor_type;location;lat;lon;timestamp;pressure;altitude;pressure_sealevel;temperature;humidity
34374;BME280;20637;55.770;37.592;2022-12-07T00:01:25;100907.22;;;-4.57;48.63
34374;BME280;20637;55.770;37.592;2022-12-07T00:03:52;100914.41;;;-4.63;47.47
34374;BME280;20637;55.770;37.592;2022-12-07T00:06:18;100920.63;;;-4.66;48.77
34374;BME280;20637;55.770;37.592;2022-12-07T00:08:44;100912.72;;;-4.66;48.14
34374;BME280;20637;55.770;37.592;2022-12-07T00:11:19;100908.66;;;-4.77;nan
34374;BME280;20637;55.770;37.592;2022-12-07T00:13:46;100914.81;;;-4.78;47.80
34374;BME280;20637;55.770;37.592;2022-12-07T00:16:12;100921.03;;;-4.79;49.08
34374;BME280;20637;55.770;37.592;2022-12-07T00:18:38;100918.34;;;-4.78;49.06
34374;BME280;20637;55.770;37.592;2022-12-07T00:21:11;100915.63;;;-4.75;48.84
34374;BME280;20637;55.770;37.592;2022-12-07T00:23:37;100911.22;;;-4.74;48.29
34374;BME280;20637;55.770;37.592;2022-12-07T00:26:06;100913.91;;;-4.76;48.71
34374;BME280;20637;55.770;37.592;2022-12-07T00:28:32;100915.66;;;-4.76;48.01
34374;BME280;20637;55.770;37.592;2022-12-07T00:31:09;100911.34;;;-4.79;48.64
34374;BME280;20637;55.770;37.592;2022-12-07T00:33:35;100911.50;;;-4.85;48.74
34374;BME280;20637;55.770;37.592;2022-12-07T00:36:01;100908.97;;;-4.88;49.09
34374;BME280;20637;55.770;37.592;2022-12-07T00:38:31;100917.81;;;-4.91;49.43
34374;BME280;20637;55.770;37.592;2022-12-07T00:41:02;100923.19;;;-4.95;49.23
34374;BME280;20637;55.770;37.592;2022-12-07T00:43:28;100921.47;;;-4.96;48.77
34374;BME280;20637;55.770;37.592;2022-12-07T00:45:53;100915.41;;;-5.00;49.40
34374;BME280;20637;55.770;37.592;2022-12-07T00:48:19;100918.84;;;-4.98;48.74
34374;BME280;20637;55.770;37.592;2022-12-07T00:50:45;100919.53;;;-4.90;49.69
34374;BME280;20637;55.770;37.592;2022-12-07T00:53:10;100918.59;;;-4.87;48.81
34374;BME280;20637;55.770;37.592;2022-12-07T00:55:36;100918.63;;;-4.89;48.51
34374;BME280;20637;55.770;37.592;2022-12-07T00:58:02;100916.94;;;-4.91;48.40
34374;BME280;20637;55.770;37.592;2022-12-07T01:00:27;100908.25;;;-4.95;48.78
34374;BME280;20637;55.770;37.592;2022-12-07T01:02:52;100911.88;;;-4.99;49.31
34374;BME280;20637;55.770;37.592;2022-12-07T01:05:18;100908.31;;;-4.98;48.66
34374;BME280;20637;55.770;37.592;2022-12-07T01:07:43;100910.03;;;-4.95;48.83
34374;BME280;20637;55.770;37.592;2022-12-07T01:10:09;100914.38;;;-4.94;49.11
34374;BME280;20637;55.770;37.592;2022-12-07T01:12:35;100913.47;;;-4.93;49.46
34374;BME280;20637;55.770;37.592;2022-12-07T01:15:00;100904.66;;;-4.91;49.22
34374;BME280;20637;55.770;37.592;2022-12-07T01:17:26;100909.84;;;-4.89;48.23
34374;BME280;20637;55.770;37.592;2022-12-07T01:19:51;100903.78;;;-4.91;49.11
34374;BME280;20637;55.770;37.592;2022-12-07T01:22:16;100908.19;;;-4.93;48.19
34374;BME280;20637;55.770;37.592;2022-12-07T01:24:42;100906.53;;;-4.96;47.78
34374;BME280;20637;55.770;37.592;2022-12-07T01:27:07;100904.91;;;-5.01;47.92
34374;BME280;20637;55.770;37.592;2022-12-07T01:29:33;100899.63;;;-5.01;47.83
34374;BME280;20637;55.770;37.592;2022-12-07T01:31:58;100903.25;;;-5.05;48.05
34374;BME280;20637;55.770;37.592;2022-12-07T01:34:24;100904.09;;;-5.03;48.65
34374;BME280;20637;55.770;37.592;2022-12-07T01:36:49;100901.78;;;-5.15;48.27
34374;BME280;20637;55.770;37.592;2022-12-07T01:39:15;100907.22;;;-5.23;47.98
34374;BME280;20637;55.770;37.592;2022-12-07T01:41:40;100898.44;;;-5.22;47.52
34374;BME280;20637;55.770;37.592;2022-12-07T01:46:33;100895.75;;;-5.20;47.86
34374;BME280;20637;55.770;37.592;2022-12-07T01:48:59;100897.56;;;-5.22;47.92
34374;BME280;20637;55.770;37.592;2022-12-07T01:51:25;100890.53;;;-5.22;48.09
34374;BME280;20637;55.770;37.592;2022-12-07T01:53:51;100889.59;;;-5.19;48.67
34374;BME280;20637;55.770;37.592;2022-12-07T01:56:17;100887.63;;;-5.11;48.76
34374;BME280;20637;55.770;37.592;2022-12-07T01:58:44;100883.94;;;-5.06;48.66
34374;BME280;20637;55.770;37.592;2022-12-07T02:01:11;100877.75;;;-5.03;48.39
34374;BME280;20637;55.770;37.592;2022-12-07T02:03:40;100885.66;;;-5.03;48.97
34374;BME280;20637;55.770;37.592;2022-12-07T02:06:06;100881.38;;;-5.07;47.94
34374;BME280;20637;55.770;37.592;2022-12-07T02:08:32;100874.28;;;-5.05;47.83
34374;BME280;20637;55.770;37.592;2022-12-07T02:10:58;100878.00;;;-5.12;48.40
34374;BME280;20637;55.770;37.592;2022-12-07T02:13:25;100871.94;;;-5.16;48.04
34374;BME280;20637;55.770;37.592;2022-12-07T02:18:46;100873.03;;;-5.24;48.06
34374;BME280;20637;55.770;37.592;2022-12-07T02:24:14;100874.75;;;-5.22;48.13
34374;BME280;20637;55.770;37.592;2022-12-07T02:29:25;100865.03;;;-5.20;47.94
34374;BME280;20637;55.770;37.592;2022-12-07T02:34:28;100863.34;;;-5.22;48.13
34374;BME280;20637;55.770;37.592;2022-12-07T02:36:57;100870.47;;;-5.26;48.52
34374;BME280;20637;55.770;37.592;2022-12-07T02:39:39;100861.81;;;-5.31;48.74
34374;BME280;20637;55.770;37.592;2022-12-07T02:42:30;100867.16;;;-5.34;48.98
34374;BME280;20637;55.770;37.592;2022-12-07T02:44:51;100866.31;;;-5.36;48.79
34374;BME280;20637;55.770;37.592;2022-12-07T02:47:17;100861.84;;;-5.33;48.80
34374;BME280;20637;55.770;37.592;2022-12-07T02:49:43;100862.78;;;-5.35;48.52
34374;BME280;20637;55.770;37.592;2022-12-07T02:52:09;100869.00;;;-5.38;48.39
34374;BME280;20637;55.770;37.592;2022-12-07T02:54:35;100865.50;;;-5.38;49.26
34374;BME280;20637;55.770;37.592;2022-12-07T03:09:51;100865.25;;;-5.63;49.03
34374;BME280;20637;55.770;37.592;2022-12-07T03:12:20;100861.03;;;-5.70;48.84
34374;BME280;20637;55.770;37.592;2022-12-07T03:14:52;100863.72;;;-5.71;48.97
34374;BME280;20637;55.770;37.592;2022-12-07T03:17:21;100868.28;;;-5.80;48.83
34374;BME280;20637;55.770;37.592;2022-12-07T03:19:49;100873.81;;;-5.90;48.74
34374;BME280;20637;55.770;37.592;2022-12-07T03:22:16;100865.94;;;-5.90;48.99
34374;BME280;20637;55.770;37.592;2022-12-07T03:24:45;100867.59;;;-5.86;48.64
34374;BME280;20637;55.770;37.592;2022-12-07T03:29:39;100860.66;;;-5.89;49.18
34374;BME280;20637;55.770;37.592;2022-12-07T03:32:21;100865.94;;;-5.90;49.12
34374;BME280;20637;55.770;37.592;2022-12-07T03:37:25;100856.25;;;-5.88;49.10
34374;BME280;20637;55.770;37.592;2022-12-07T03:39:58;100860.66;;;-5.89;49.35
34374;BME280;20637;55.770;37.592;2022-12-07T03:42:28;100860.63;;;-5.87;49.16
34374;BME280;20637;55.770;37.592;2022-12-07T03:44:54;100857.78;;;-5.81;49.95
34374;BME280;20637;55.770;37.592;2022-12-07T03:47:30;100862.97;;;-5.78;49.63
34374;BME280;20637;55.770;37.592;2022-12-07T03:52:29;100852.53;;;-5.81;49.86
34374;BME280;20637;55.770;37.592;2022-12-07T03:55:19;100858.69;;;-5.82;49.14
34374;BME280;20637;55.770;37.592;2022-12-07T03:57:42;100845.59;;;-5.84;49.86
34374;BME280;20637;55.770;37.592;2022-12-07T04:00:10;100851.06;;;-5.91;50.05
34374;BME280;20637;55.770;37.592;2022-12-07T04:02:40;100850.22;;;-5.93;49.40
34374;BME280;20637;55.770;37.592;2022-12-07T04:05:06;100851.09;;;-5.93;50.31
34374;BME280;20637;55.770;37.592;2022-12-07T04:07:31;100844.88;;;-5.90;50.35
34374;BME280;20637;55.770;37.592;2022-12-07T04:09:57;100845.84;;;-5.93;50.27
34374;BME280;20637;55.770;37.592;2022-12-07T04:12:22;100845.69;;;-5.87;50.04
34374;BME280;20637;55.770;37.592;2022-12-07T04:14:48;100846.50;;;-5.85;49.92
34374;BME280;20637;55.770;37.592;2022-12-07T04:17:14;100853.44;;;-5.82;50.30
34374;BME280;20637;55.770;37.592;2022-12-07T04:19:39;100845.53;;;-5.81;50.02
34374;BME280;20637;55.770;37.592;2022-12-07T04:22:05;100847.38;;;-5.86;50.03
34374;BME280;20637;55.770;37.592;2022-12-07T04:24:31;100849.28;;;-5.91;50.49
34374;BME280;20637;55.770;37.592;2022-12-07T04:26:56;100854.59;;;-5.92;50.79
34374;BME280;20637;55.770;37.592;2022-12-07T04:29:22;100841.44;;;-5.92;50.85
34374;BME280;20637;55.770;37.592;2022-12-07T04:31:47;100852.00;;;-5.94;50.69
34374;BME280;20637;55.770;37.592;2022-12-07T04:34:13;100840.75;;;-5.99;51.29
34374;BME280;20637;55.770;37.592;2022-12-07T04:36:39;100842.41;;;-5.95;51.00
34374;BME280;20637;55.770;37.592;2022-12-07T04:39:05;100842.25;;;-5.90;51.44
34374;BME280;20637;55.770;37.592;2022-12-07T04:41:31;100841.34;;;-5.88;51.29
34374;BME280;20637;55.770;37.592;2022-12-07T04:43:58;100838.72;;;-5.88;51.31
34374;BME280;20637;55.770;37.592;2022-12-07T04:46:23;100836.97;;;-5.87;50.73
34374;BME280;20637;55.770;37.592;2022-12-07T04:48:50;100835.22;;;-5.88;50.82
34374;BME280;20637;55.770;37.592;2022-12-07T04:51:16;100843.91;;;-5.86;51.37
34374;BME280;20637;55.770;37.592;2022-12-07T04:53:44;100833.56;;;-5.92;51.74
34374;BME280;20637;55.770;37.592;2022-12-07T04:56:09;100842.31;;;-5.92;51.88
34374;BME280;20637;55.770;37.592;2022-12-07T04:58:35;100848.38;;;-5.88;51.57
34374;BME280;20637;55.770;37.592;2022-12-07T05:01:00;100839.59;;;-5.89;51.53
34374;BME280;20637;55.770;37.592;2022-12-07T05:03:26;100847.47;;;-5.87;51.55
34374;BME280;20637;55.770;37.592;2022-12-07T05:05:52;100843.19;;;-5.91;51.90
34374;BME280;20637;55.770;37.592;2022-12-07T05:08:18;100831.75;;;-5.90;51.97
34374;BME280;20637;55.770;37.592;2022-12-07T05:10:43;100843.97;;;-5.88;51.79
34374;BME280;20637;55.770;37.592;2022-12-07T05:13:09;100850.16;;;-5.90;52.23
34374;BME280;20637;55.770;37.592;2022-12-07T05:15:34;100839.78;;;-5.96;51.90
34374;BME280;20637;55.770;37.592;2022-12-07T05:18:00;100851.25;;;-5.99;52.07
34374;BME280;20637;55.770;37.592;2022-12-07T05:20:25;100854.78;;;-6.01;52.52
34374;BME280;20637;55.770;37.592;2022-12-07T05:22:51;100844.44;;;-6.07;52.32
34374;BME280;20637;55.770;37.592;2022-12-07T05:25:16;100842.69;;;-6.07;52.57
34374;BME280;20637;55.770;37.592;2022-12-07T05:27:42;100845.25;;;-6.05;51.97
34374;BME280;20637;55.770;37.592;2022-12-07T05:30:07;100843.59;;;-6.09;52.48
34374;BME280;20637;55.770;37.592;2022-12-07T05:32:33;100844.44;;;-6.09;52.65
34374;BME280;20637;55.770;37.592;2022-12-07T05:34:58;100837.34;;;-6.04;52.52
34374;BME280;20637;55.770;37.592;2022-12-07T05:37:24;100834.59;;;-5.99;52.56
34374;BME280;20637;55.770;37.592;2022-12-07T05:39:49;100838.94;;;-5.98;53.17
34374;BME280;20637;55.770;37.592;2022-12-07T05:42:15;100837.28;;;-6.02;52.84
34374;BME280;20637;55.770;37.592;2022-12-07T05:44:45;100841.81;;;-6.07;52.76
34374;BME280;20637;55.770;37.592;2022-12-07T05:47:11;100847.94;;;-6.08;52.48
34374;BME280;20637;55.770;37.592;2022-12-07T05:49:37;100840.06;;;-6.08;52.52
34374;BME280;20637;55.770;37.592;2022-12-07T05:52:03;100845.41;;;-6.11;52.97
34374;BME280;20637;55.770;37.592;2022-12-07T05:54:28;100834.03;;;-6.13;52.90
34374;BME280;20637;55.770;37.592;2022-12-07T05:56:54;100841.97;;;-6.15;53.24
34374;BME280;20637;55.770;37.592;2022-12-07T05:59:19;100835.97;;;-6.21;52.88
34374;BME280;20637;55.770;37.592;2022-12-07T06:02:01;100830.78;;;-6.24;53.27
34374;BME280;20637;55.770;37.592;2022-12-07T06:04:31;100838.69;;;-6.24;53.43
34374;BME280;20637;55.770;37.592;2022-12-07T06:06:57;100829.81;;;-6.20;53.43
34374;BME280;20637;55.770;37.592;2022-12-07T06:09:23;100825.44;;;-6.20;53.69
34374;BME280;20637;55.770;37.592;2022-12-07T06:11:49;100826.28;;;-6.18;53.37
34374;BME280;20637;55.770;37.592;2022-12-07T06:14:33;100821.25;;;-6.29;53.61
34374;BME280;20637;55.770;37.592;2022-12-07T06:16:58;100833.59;;;-6.32;53.59
34374;BME280;20637;55.770;37.592;2022-12-07T06:19:24;100831.13;;;-6.40;54.15
34374;BME280;20637;55.770;37.592;2022-12-07T06:21:49;100837.34;;;-6.44;53.84
34374;BME280;20637;55.770;37.592;2022-12-07T06:24:15;100833.03;;;-6.46;54.38
34374;BME280;20637;55.770;37.592;2022-12-07T06:26:42;100825.25;;;-6.51;54.38
34374;BME280;20637;55.770;37.592;2022-12-07T06:29:08;100828.84;;;-6.55;54.03
34374;BME280;20637;55.770;37.592;2022-12-07T06:31:33;100836.69;;;-6.53;54.60
34374;BME280;20637;55.770;37.592;2022-12-07T06:33:59;100831.44;;;-6.53;54.59
34374;BME280;20637;55.770;37.592;2022-12-07T06:36:24;100828.84;;;-6.55;55.40
34374;BME280;20637;55.770;37.592;2022-12-07T06:38:50;100833.44;;;-6.64;55.35
34374;BME280;20637;55.770;37.592;2022-12-07T06:41:15;100831.72;;;-6.67;55.53
34374;BME280;20637;55.770;37.592;2022-12-07T06:43:41;100838.00;;;-6.74;55.59
34374;BME280;20637;55.770;37.592;2022-12-07T06:46:07;100842.47;;;-6.79;56.27
34374;BME280;20637;55.770;37.592;2022-12-07T06:48:32;100841.75;;;-6.87;56.80
34374;BME280;20637;55.770;37.592;2022-12-07T06:50:58;100832.09;;;-6.85;56.78
34374;BME280;20637;55.770;37.592;2022-12-07T06:53:23;100830.34;;;-6.86;56.53
34374;BME280;20637;55.770;37.592;2022-12-07T06:55:49;100834.59;;;-6.79;55.96
34374;BME280;20637;55.770;37.592;2022-12-07T06:58:14;100837.09;;;-6.73;56.43
34374;BME280;20637;55.770;37.592;2022-12-07T07:00:40;100839.56;;;-6.65;56.93
34374;BME280;20637;55.770;37.592;2022-12-07T07:03:05;100839.53;;;-6.64;57.04
34374;BME280;20637;55.770;37.592;2022-12-07T07:05:31;100842.19;;;-6.65;57.08
34374;BME280;20637;55.770;37.592;2022-12-07T07:07:56;100846.66;;;-6.69;57.18
34374;BME280;20637;55.770;37.592;2022-12-07T07:10:22;100843.94;;;-6.64;57.13
34374;BME280;20637;55.770;37.592;2022-12-07T07:12:47;100843.00;;;-6.62;57.22
34374;BME280;20637;55.770;37.592;2022-12-07T07:15:13;100839.50;;;-6.62;57.58
34374;BME280;20637;55.770;37.592;2022-12-07T07:17:38;100839.41;;;-6.58;58.06
34374;BME280;20637;55.770;37.592;2022-12-07T07:20:04;100834.06;;;-6.53;57.48
34374;BME280;20637;55.770;37.592;2022-12-07T07:22:29;100841.88;;;-6.49;57.52
34374;BME280;20637;55.770;37.592;2022-12-07T07:24:55;100837.34;;;-6.44;57.61
34374;BME280;20637;55.770;37.592;2022-12-07T07:27:20;100832.94;;;-6.42;57.72
34374;BME280;20637;55.770;37.592;2022-12-07T07:29:46;100839.91;;;-6.41;57.34
34374;BME280;20637;55.770;37.592;2022-12-07T07:32:11;100837.19;;;-6.36;57.93
34374;BME280;20637;55.770;37.592;2022-12-07T07:34:37;100833.75;;;-6.40;58.00
34374;BME280;20637;55.770;37.592;2022-12-07T07:37:03;100829.38;;;-6.39;58.03
34374;BME280;20637;55.770;37.592;2022-12-07T07:39:28;100823.25;;;-6.40;57.97
34374;BME280;20637;55.770;37.592;2022-12-07T07:41:54;100814.34;;;-6.33;57.85
34374;BME280;20637;55.770;37.592;2022-12-07T07:44:24;100816.00;;;-6.29;57.98
34374;BME280;20637;55.770;37.592;2022-12-07T07:46:50;100812.66;;;-6.37;57.95
34374;BME280;20637;55.770;37.592;2022-12-07T07:49:15;100807.41;;;-6.35;57.79
34374;BME280;20637;55.770;37.592;2022-12-07T07:51:40;100811.84;;;-6.37;57.67
34374;BME280;20637;55.770;37.592;2022-12-07T07:54:06;100824.91;;;-6.36;57.51
34374;BME280;20637;55.770;37.592;2022-12-07T07:56:31;100809.06;;;-6.33;57.77
34374;BME280;20637;55.770;37.592;2022-12-07T07:58:57;100815.09;;;-6.26;57.76
34374;BME280;20637;55.770;37.592;2022-12-07T08:01:22;100808.13;;;-6.29;57.18
34374;BME280;20637;55.770;37.592;2022-12-07T08:03:48;100824.66;;;-6.23;57.57
34374;BME280;20637;55.770;37.592;2022-12-07T08:06:13;100810.75;;;-6.29;57.60
34374;BME280;20637;55.770;37.592;2022-12-07T08:08:39;100815.19;;;-6.31;57.94
34374;BME280;20637;55.770;37.592;2022-12-07T08:11:05;100803.00;;;-6.35;57.62
34374;BME280;20637;55.770;37.592;2022-12-07T08:13:30;100803.00;;;-6.35;58.02
34374;BME280;20637;55.770;37.592;2022-12-07T08:15:56;100804.84;;;-6.38;57.69
34374;BME280;20637;55.770;37.592;2022-12-07T08:18:21;100803.94;;;-6.37;57.51
34374;BME280;20637;55.770;37.592;2022-12-07T08:20:47;100800.47;;;-6.38;57.65
34374;BME280;20637;55.770;37.592;2022-12-07T08:23:12;100802.22;;;-6.38;57.76
34374;BME280;20637;55.770;37.592;2022-12-07T08:25:38;100800.38;;;-6.35;58.03
34374;BME280;20637;55.770;37.592;2022-12-07T08:28:04;100792.41;;;-6.32;57.49
34374;BME280;20637;55.770;37.592;2022-12-07T08:30:29;100802.06;;;-6.32;57.98
34374;BME280;20637;55.770;37.592;2022-12-07T08:32:55;100799.50;;;-6.35;57.48
34374;BME280;20637;55.770;37.592;2022-12-07T08:35:20;100798.56;;;-6.33;58.14
34374;BME280;20637;55.770;37.592;2022-12-07T08:37:46;100795.03;;;-6.30;57.71
34374;BME280;20637;55.770;37.592;2022-12-07T08:40:11;100793.09;;;-6.22;57.79
34374;BME280;20637;55.770;37.592;2022-12-07T08:42:41;100799.78;;;-6.09;57.17
34374;BME280;20637;55.770;37.592;2022-12-07T08:45:07;100799.59;;;-6.01;57.83
34374;BME280;20637;55.770;37.592;2022-12-07T08:47:34;100789.84;;;-5.98;57.21
34374;BME280;20637;55.770;37.592;2022-12-07T08:50:00;100794.06;;;-5.91;57.23
34374;BME280;20637;55.770;37.592;2022-12-07T08:52:29;100786.06;;;-5.86;56.92
34374;BME280;20637;55.770;37.592;2022-12-07T08:54:55;100784.09;;;-5.78;56.79
34374;BME280;20637;55.770;37.592;2022-12-07T08:57:20;100778.91;;;-5.81;56.92
34374;BME280;20637;55.770;37.592;2022-12-07T08:59:46;100774.53;;;-5.82;56.79
34374;BME280;20637;55.770;37.592;2022-12-07T09:02:12;100775.38;;;-5.80;57.05
34374;BME280;20637;55.770;37.592;2022-12-07T09:04:40;100766.53;;;-5.78;56.98
34374;BME280;20637;55.770;37.592;2022-12-07T09:07:05;100766.53;;;-5.76;56.54
34374;BME280;20637;55.770;37.592;2022-12-07T09:09:31;100759.34;;;-5.71;56.63
34374;BME280;20637;55.770;37.592;2022-12-07T09:11:56;100769.81;;;-5.68;56.24
34374;BME280;20637;55.770;37.592;2022-12-07T09:14:22;100760.97;;;-5.65;56.38
34374;BME280;20637;55.770;37.592;2022-12-07T09:16:47;100758.19;;;-5.59;55.46
34374;BME280;20637;55.770;37.592;2022-12-07T09:19:13;100766.13;;;-5.61;55.54
34374;BME280;20637;55.770;37.592;2022-12-07T09:21:38;100759.22;;;-5.65;55.69
34374;BME280;20637;55.770;37.592;2022-12-07T09:24:04;100759.16;;;-5.63;55.59
34374;BME280;20637;55.770;37.592;2022-12-07T09:26:29;100742.44;;;-5.61;54.62
34374;BME280;20637;55.770;37.592;2022-12-07T09:28:55;100746.75;;;-5.58;54.99
34374;BME280;20637;55.770;37.592;2022-12-07T09:31:20;100735.28;;;-5.56;54.72
34374;BME280;20637;55.770;37.592;2022-12-07T09:33:45;100750.91;;;-5.50;54.94
34374;BME280;20637;55.770;37.592;2022-12-07T09:36:11;100739.44;;;-5.47;55.03
34374;BME280;20637;55.770;37.592;2022-12-07T09:38:36;100736.69;;;-5.43;54.81
34374;BME280;20637;55.770;37.592;2022-12-07T09:41:06;100737.44;;;-5.38;55.22
34374;BME280;20637;55.770;37.592;2022-12-07T09:43:32;100737.16;;;-5.29;54.54
34374;BME280;20637;55.770;37.592;2022-12-07T09:45:59;100723.00;;;-5.24;54.86
34374;BME280;20637;55.770;37.592;2022-12-07T09:48:32;100723.84;;;-5.22;55.51
34374;BME280;20637;55.770;37.592;2022-12-07T09:50:58;100720.13;;;-5.15;55.34
34374;BME280;20637;55.770;37.592;2022-12-07T09:55:50;100733.19;;;-5.12;55.38
34374;BME280;20637;55.770;37.592;2022-12-07T09:58:22;100713.19;;;-5.18;55.27
34374;BME280;20637;55.770;37.592;2022-12-07T10:01:31;100715.06;;;-5.21;54.41
34374;BME280;20637;55.770;37.592;2022-12-07T10:03:38;100715.00;;;-5.20;54.88
34374;BME280;20637;55.770;37.592;2022-12-07T10:06:04;100719.34;;;-5.17;54.68
34374;BME280;20637;55.770;37.592;2022-12-07T10:08:30;100714.00;;;-5.16;54.53
34374;BME280;20637;55.770;37.592;2022-12-07T10:10:57;100707.94;;;-5.18;53.42
34374;BME280;20637;55.770;37.592;2022-12-07T10:13:33;100707.19;;;-5.23;53.43
34374;BME280;20637;55.770;37.592;2022-12-07T10:15:59;100703.59;;;-5.20;53.51
34374;BME280;20637;55.770;37.592;2022-12-07T10:20:59;100696.34;;;-5.12;54.35
34374;BME280;20637;55.770;37.592;2022-12-07T10:23:24;100691.84;;;-5.09;54.11
34374;BME280;20637;55.770;37.592;2022-12-07T10:25:50;100702.34;;;-5.07;53.28
34374;BME280;20637;55.770;37.592;2022-12-07T10:28:20;100690.28;;;-5.14;53.88
34374;BME280;20637;55.770;37.592;2022-12-07T10:30:50;100698.41;;;-5.22;53.13
34374;BME280;20637;55.770;37.592;2022-12-07T10:33:29;100697.56;;;-5.24;53.19
34374;BME280;20637;55.770;37.592;2022-12-07T10:35:55;100695.06;;;-5.29;53.04
34374;BME280;20637;55.770;37.592;2022-12-07T10:38:20;100695.81;;;-5.25;53.09
34374;BME280;20637;55.770;37.592;2022-12-07T10:40:46;100688.09;;;-5.30;53.24
34374;BME280;20637;55.770;37.592;2022-12-07T10:58:23;100677.13;;;-5.14;52.26
34374;BME280;20637;55.770;37.592;2022-12-07T11:03:24;100671.94;;;-5.17;53.30
34374;BME280;20637;55.770;37.592;2022-12-07T11:13:44;100658.66;;;-5.44;52.85
34374;BME280;20637;55.770;37.592;2022-12-07T11:16:16;100660.63;;;-5.52;52.46
34374;BME280;20637;55.770;37.592;2022-12-07T11:21:34;100646.66;;;-5.54;53.55
34374;BME280;20637;55.770;37.592;2022-12-07T11:34:43;100649.31;;;-5.54;53.62
34374;BME280;20637;55.770;37.592;2022-12-07T11:37:13;100656.22;;;-5.50;52.76
34374;BME280;20637;55.770;37.592;2022-12-07T11:39:42;100648.25;;;-5.48;52.99
34374;BME280;20637;55.770;37.592;2022-12-07T11:42:20;100644.84;;;-5.52;52.94
34374;BME280;20637;55.770;37.592;2022-12-07T11:44:52;100647.56;;;-5.55;54.07
34374;BME280;20637;55.770;37.592;2022-12-07T11:47:30;100646.75;;;-5.57;53.41
34374;BME280;20637;55.770;37.592;2022-12-07T11:52:27;100628.16;;;-5.51;53.21
34374;BME280;20637;55.770;37.592;2022-12-07T11:54:56;100620.38;;;-5.54;53.97
34374;BME280;20637;55.770;37.592;2022-12-07T11:57:28;100634.28;;;-5.50;53.66
34374;BME280;20637;55.770;37.592;2022-12-07T11:59:59;100632.44;;;-5.47;52.80
34374;BME280;20637;55.770;37.592;2022-12-07T12:02:27;100631.63;;;-5.49;53.60
34374;BME280;20637;55.770;37.592;2022-12-07T12:07:28;100608.78;;;-5.48;53.18
34374;BME280;20637;55.770;37.592;2022-12-07T12:10:13;100608.84;;;-5.50;53.23
34374;BME280;20637;55.770;37.592;2022-12-07T12:15:23;100610.75;;;-5.55;53.44
34374;BME280;20637;55.770;37.592;2022-12-07T12:20:39;100605.66;;;-5.61;54.50
34374;BME280;20637;55.770;37.592;2022-12-07T12:23:07;100599.53;;;-5.61;53.47
34374;BME280;20637;55.770;37.592;2022-12-07T12:25:41;100600.66;;;-5.70;53.69
34374;BME280;20637;55.770;37.592;2022-12-07T12:28:18;100602.31;;;-5.67;53.72
34374;BME280;20637;55.770;37.592;2022-12-07T12:30:45;100597.03;;;-5.66;54.21
34374;BME280;20637;55.770;37.592;2022-12-07T12:33:23;100601.34;;;-5.63;54.30
34374;BME280;20637;55.770;37.592;2022-12-07T12:38:48;100604.03;;;-5.65;54.26
34374;BME280;20637;55.770;37.592;2022-12-07T12:43:58;100606.75;;;-5.68;54.60
34374;BME280;20637;55.770;37.592;2022-12-07T12:51:47;100605.16;;;-5.75;54.20
34374;BME280;20637;55.770;37.592;2022-12-07T12:54:14;100596.47;;;-5.77;54.61
34374;BME280;20637;55.770;37.592;2022-12-07T13:00:23;100598.59;;;-5.88;55.12
34374;BME280;20637;55.770;37.592;2022-12-07T13:05:32;100589.81;;;-5.89;55.21
34374;BME280;20637;55.770;37.592;2022-12-07T13:07:58;100603.72;;;-5.85;55.49
34374;BME280;20637;55.770;37.592;2022-12-07T13:15:35;100598.69;;;-5.93;55.58
34374;BME280;20637;55.770;37.592;2022-12-07T13:18:02;100598.72;;;-5.94;55.55
34374;BME280;20637;55.770;37.592;2022-12-07T13:23:06;100605.94;;;-6.01;55.83
34374;BME280;20637;55.770;37.592;2022-12-07T13:25:44;100600.78;;;-6.05;56.11
34374;BME280;20637;55.770;37.592;2022-12-07T13:28:19;100595.66;;;-6.10;56.49
34374;BME280;20637;55.770;37.592;2022-12-07T13:33:12;100592.25;;;-6.13;56.72
34374;BME280;20637;55.770;37.592;2022-12-07T13:35:38;100590.53;;;-6.14;56.58
34374;BME280;20637;55.770;37.592;2022-12-07T13:38:05;100585.31;;;-6.16;56.63
34374;BME280;20637;55.770;37.592;2022-12-07T13:40:31;100587.94;;;-6.16;56.37
34374;BME280;20637;55.770;37.592;2022-12-07T13:43:01;100586.31;;;-6.21;57.12
34374;BME280;20637;55.770;37.592;2022-12-07T13:45:29;100580.28;;;-6.25;56.77
34374;BME280;20637;55.770;37.592;2022-12-07T13:48:14;100586.53;;;-6.29;56.54
34374;BME280;20637;55.770;37.592;2022-12-07T13:50:41;100587.38;;;-6.27;57.04
34374;BME280;20637;55.770;37.592;2022-12-07T13:53:07;100589.25;;;-6.32;57.13
34374;BME280;20637;55.770;37.592;2022-12-07T13:55:36;100577.09;;;-6.36;57.23
34374;BME280;20637;55.770;37.592;2022-12-07T13:58:09;100579.81;;;-6.39;57.20
34374;BME280;20637;55.770;37.592;2022-12-07T14:00:35;100577.19;;;-6.41;57.29
34374;BME280;20637;55.770;37.592;2022-12-07T14:03:01;100574.53;;;-6.39;57.68
34374;BME280;20637;55.770;37.592;2022-12-07T14:05:29;100585.03;;;-6.38;57.40
34374;BME280;20637;55.770;37.592;2022-12-07T14:10:27;100582.75;;;-6.51;57.56
34374;BME280;20637;55.770;37.592;2022-12-07T14:12:54;100583.72;;;-6.55;57.49
34374;BME280;20637;55.770;37.592;2022-12-07T14:15:20;100587.22;;;-6.56;57.86
34374;BME280;20637;55.770;37.592;2022-12-07T14:17:50;100580.28;;;-6.57;57.72
34374;BME280;20637;55.770;37.592;2022-12-07T14:22:58;100569.66;;;-6.53;57.59
34374;BME280;20637;55.770;37.592;2022-12-07T14:25:27;100574.00;;;-6.52;57.55
34374;BME280;20637;55.770;37.592;2022-12-07T14:30:20;100579.31;;;-6.53;57.71
34374;BME280;20637;55.770;37.592;2022-12-07T14:32:46;100575.81;;;-6.54;57.92
34374;BME280;20637;55.770;37.592;2022-12-07T14:35:14;100575.13;;;-6.62;57.78
34374;BME280;20637;55.770;37.592;2022-12-07T14:37:41;100578.75;;;-6.66;57.61
34374;BME280;20637;55.770;37.592;2022-12-07T14:40:07;100577.84;;;-6.65;57.59
34374;BME280;20637;55.770;37.592;2022-12-07T14:42:38;100563.78;;;-6.64;58.25
34374;BME280;20637;55.770;37.592;2022-12-07T14:45:05;100569.09;;;-6.65;57.94